Time;durP1;ratioP1;P1;durP2;ratioP2;P2;SDS_P1;SDS_P2;PMS_P1;PMS_P2;Temp;Humidity;BMP_temperature;BMP_pressure;BME280_temperature;BME280_humidity;BME280_pressure;Samples;Min_cycle;Max_cycle;Signal;HPM_P1;HPM_P2
2023/10/13 00:01:58;;;;;;;22.63;14.15;;;;;;;15.94;100.00;101036.66;5037970;28;20025;-74
2023/10/13 00:04:24;;;;;;;19.10;14.15;;;;;;;15.91;100.00;101034.19;5040016;28;20175;-75
2023/10/13 00:06:52;;;;;;;17.92;14.32;;;;;;;15.93;100.00;101029.59;5035108;28;20115;-74
2023/10/13 00:09:19;;;;;;;20.48;14.57;;;;;;;15.91;100.00;101032.38;5040285;28;20035;-74
2023/10/13 00:11:44;;;;;;;19.73;14.52;;;;;;;15.91;100.00;101027.00;5038855;28;20052;-73
2023/10/13 00:14:15;;;;;;;20.55;14.13;;;;;;;15.90;100.00;101025.28;5039064;28;20167;-74
2023/10/13 00:16:41;;;;;;;22.73;15.50;;;;;;;15.90;100.00;101022.59;5037117;28;20422;-74
2023/10/13 00:19:10;;;;;;;20.08;15.35;;;;;;;15.90;100.00;101017.22;5042461;28;20028;-73
2023/10/13 00:21:35;;;;;;;23.17;15.95;;;;;;;15.86;100.00;101015.72;5040501;28;20095;-73
2023/10/13 00:24:01;;;;;;;23.77;16.83;;;;;;;15.84;100.00;101015.00;5041457;28;20029;-74
2023/10/13 00:26:28;;;;;;;25.70;16.83;;;;;;;15.81;100.00;101008.97;5037131;28;20102;-74
2023/10/13 00:29:32;;;;;;;22.38;15.27;;;;;;;15.79;100.00;101003.69;5040900;28;20039;-75
2023/10/13 00:31:48;;;;;;;22.10;16.13;;;;;;;15.77;100.00;101007.47;5040651;28;20041;-74
2023/10/13 00:34:27;;;;;;;22.90;16.08;;;;;;;15.71;100.00;101000.69;5038684;28;20033;-73
2023/10/13 00:39:56;;;;;;;22.67;15.52;;;;;;;15.61;100.00;100989.72;5013727;28;20037;-75
2023/10/13 00:42:25;;;;;;;20.48;15.23;;;;;;;15.59;100.00;100991.66;5014876;28;20115;-74
2023/10/13 00:44:54;;;;;;;23.75;15.30;;;;;;;15.58;100.00;100994.44;5019060;28;20049;-75
2023/10/13 00:47:37;;;;;;;22.35;15.13;;;;;;;15.56;100.00;100993.69;5020093;28;20041;-73
2023/10/13 00:50:14;;;;;;;22.35;15.07;;;;;;;15.54;100.00;100990.25;5014191;28;20039;-74
2023/10/13 00:52:41;;;;;;;23.33;15.05;;;;;;;15.52;100.00;100978.78;5002461;28;20081;-73
2023/10/13 00:55:11;;;;;;;21.05;15.18;;;;;;;15.47;100.00;100973.75;5021588;28;20120;-73
2023/10/13 00:57:37;;;;;;;21.17;15.13;;;;;;;15.52;100.00;100976.09;5021097;28;20041;-74
2023/10/13 01:00:18;;;;;;;18.45;13.65;;;;;;;15.50;100.00;100972.66;5019938;28;20065;-74
2023/10/13 01:02:45;;;;;;;21.00;13.82;;;;;;;15.48;100.00;100966.53;5020771;28;20121;-74
2023/10/13 01:05:19;;;;;;;19.17;12.60;;;;;;;15.49;100.00;100970.94;5020331;28;20038;-74
2023/10/13 01:07:46;;;;;;;17.70;13.23;;;;;;;15.45;100.00;100955.03;5021667;28;20041;-73
2023/10/13 01:10:14;;;;;;;18.70;12.50;;;;;;;15.43;100.00;100962.34;5023415;28;20048;-73
2023/10/13 01:12:42;;;;;;;17.67;12.18;;;;;;;15.49;100.00;100962.88;5035371;28;20151;-73
2023/10/13 01:15:13;;;;;;;16.42;11.82;;;;;;;15.47;100.00;100967.47;5042094;28;20043;-73
2023/10/13 01:17:39;;;;;;;19.35;12.32;;;;;;;15.50;100.00;100957.41;5036273;28;20096;-73
2023/10/13 01:20:05;;;;;;;15.82;11.88;;;;;;;15.48;100.00;100950.44;5039685;28;20022;-72
2023/10/13 01:22:32;;;;;;;18.08;11.82;;;;;;;15.47;100.00;100940.66;5038541;28;20125;-73
2023/10/13 01:25:06;;;;;;;16.30;12.05;;;;;;;15.47;100.00;100937.97;5042296;28;20036;-74
2023/10/13 01:27:38;;;;;;;16.08;12.45;;;;;;;15.45;100.00;100943.47;5044922;28;20036;-73
2023/10/13 01:30:13;;;;;;;18.27;12.55;;;;;;;15.44;100.00;100936.38;5044547;28;20086;-74
2023/10/13 01:32:44;;;;;;;18.80;13.05;;;;;;;15.41;100.00;100928.53;5041636;28;20021;-73
2023/10/13 01:35:10;;;;;;;18.95;14.73;;;;;;;15.42;100.00;100933.81;5037928;28;20037;-73
2023/10/13 01:37:35;;;;;;;18.25;14.45;;;;;;;15.43;100.00;100918.59;5041116;28;20077;-74
2023/10/13 01:40:01;;;;;;;20.85;15.50;;;;;;;15.43;100.00;100916.75;5034932;28;20120;-74
2023/10/13 01:42:28;;;;;;;20.80;15.82;;;;;;;15.43;100.00;100913.22;5039252;28;20044;-73
2023/10/13 01:45:05;;;;;;;20.83;16.00;;;;;;;15.39;100.00;100898.31;5040222;28;20490;-73
2023/10/13 01:47:32;;;;;;;24.10;17.42;;;;;;;15.43;100.00;100895.31;5043106;28;20040;-73
2023/10/13 01:49:58;;;;;;;23.50;17.70;;;;;;;15.43;100.00;100897.97;5043507;28;20348;-72
2023/10/13 01:52:24;;;;;;;26.55;18.95;;;;;;;15.43;100.00;100892.63;5041689;28;20029;-72
2023/10/13 01:54:50;;;;;;;28.00;20.23;;;;;;;15.43;100.00;100891.75;5041937;28;20036;-73
2023/10/13 01:57:23;;;;;;;25.10;20.15;;;;;;;15.44;100.00;100894.31;5031313;28;20033;-73
2023/10/13 01:59:49;;;;;;;28.17;21.67;;;;;;;15.45;100.00;100885.31;5040529;28;20144;-72
2023/10/13 02:02:26;;;;;;;28.08;21.33;;;;;;;15.42;100.00;100874.81;5036573;28;20036;-73
2023/10/13 02:05:00;;;;;;;25.95;21.85;;;;;;;15.47;100.00;100882.53;5031919;28;20021;-72
2023/10/13 02:07:29;;;;;;;31.42;22.55;;;;;;;15.43;100.00;100860.44;5039158;28;20098;-73
2023/10/13 02:09:55;;;;;;;33.88;23.70;;;;;;;15.48;100.00;100873.50;5041100;28;20028;-72
2023/10/13 02:12:29;;;;;;;36.47;25.15;;;;;;;15.51;100.00;100872.41;5035837;28;20074;-72
2023/10/13 02:14:54;;;;;;;;;;;;;;;15.50;100.00;100865.34;5039724;28;20028;-73
2023/10/13 02:17:21;;;;;;;34.95;25.83;;;;;;;15.54;100.00;100865.00;5033976;28;20394;-72
2023/10/13 02:19:47;;;;;;;36.53;27.30;;;;;;;15.58;100.00;100868.34;5042345;28;20036;-72
2023/10/13 02:22:30;;;;;;;37.22;27.27;;;;;;;15.58;100.00;100863.81;5035679;28;20126;-72
2023/10/13 02:25:01;;;;;;;38.08;28.35;;;;;;;15.61;100.00;100860.09;5042303;28;20495;-73
2023/10/13 02:27:26;;;;;;;39.72;27.88;;;;;;;15.61;100.00;100866.31;5039957;28;20032;-73
2023/10/13 02:29:58;;;;;;;43.42;28.17;;;;;;;15.59;100.00;100848.59;5041548;28;20364;-73
2023/10/13 02:32:24;;;;;;;37.88;26.58;;;;;;;15.61;100.00;100852.03;5036071;28;20025;-73
2023/10/13 02:34:49;;;;;;;38.00;27.90;;;;;;;15.64;100.00;100846.47;5041194;28;20033;-73
2023/10/13 02:37:16;;;;;;;41.38;28.80;;;;;;;15.64;100.00;100839.28;5039976;28;20025;-72
2023/10/13 02:39:41;;;;;;;39.92;28.23;;;;;;;15.64;100.00;100838.41;5040116;28;20065;-72
2023/10/13 02:42:08;;;;;;;41.38;28.23;;;;;;;15.64;100.00;100843.78;5039282;28;20541;-72
2023/10/13 02:44:36;;;;;;;42.45;28.33;;;;;;;15.62;100.00;100845.69;5041540;28;20035;-72
2023/10/13 02:47:05;;;;;;;45.15;28.80;;;;;;;15.66;100.00;100825.75;5038914;28;20284;-72
2023/10/13 02:49:33;;;;;;;41.67;27.45;;;;;;;15.65;100.00;100824.06;5042071;28;20043;-72
2023/10/13 02:52:04;;;;;;;41.63;28.27;;;;;;;15.64;100.00;100816.94;5041584;28;20459;-72
2023/10/13 02:54:39;;;;;;;45.75;29.40;;;;;;;15.66;100.00;100812.34;5030637;28;20021;-72
2023/10/13 02:57:06;;;;;;;42.08;28.95;;;;;;;15.65;100.00;100805.25;5037565;28;20486;-72
2023/10/13 02:59:46;;;;;;;44.20;30.00;;;;;;;15.61;100.00;100790.34;5039835;28;20036;-73
2023/10/13 03:02:25;;;;;;;47.45;29.80;;;;;;;15.67;100.00;100789.91;5036592;28;20088;-73
2023/10/13 03:04:51;;;;;;;45.10;28.90;;;;;;;15.65;100.00;100776.59;5042174;28;20116;-73
2023/10/13 03:07:22;;;;;;;43.72;29.15;;;;;;;15.64;100.00;100771.34;5038136;28;20104;-73
2023/10/13 03:09:52;;;;;;;45.65;29.88;;;;;;;15.62;100.00;100757.16;5073492;28;20028;-71
2023/10/13 03:12:20;;;;;;;46.28;30.40;;;;;;;15.63;100.00;100764.22;5037285;28;20038;-72
2023/10/13 03:14:48;;;;;;;43.53;29.63;;;;;;;15.62;100.00;100759.84;5038579;28;20035;-71
2023/10/13 03:17:19;;;;;;;47.47;30.55;;;;;;;15.63;100.00;100759.75;5037151;28;20029;-71
2023/10/13 03:19:49;;;;;;;47.28;32.00;;;;;;;15.64;100.00;100747.19;5041285;28;20094;-72
2023/10/13 03:22:16;;;;;;;48.38;32.40;;;;;;;15.66;100.00;100746.13;5040051;28;20032;-72
2023/10/13 03:24:48;;;;;;;46.60;32.75;;;;;;;15.66;100.00;100740.75;5028803;28;20032;-72
2023/10/13 03:27:21;;;;;;;47.42;32.78;;;;;;;15.69;100.00;100740.53;5038674;28;20044;-72
2023/10/13 03:29:47;;;;;;;54.97;33.88;;;;;;;15.66;100.00;100721.13;5031095;28;20267;-72
2023/10/13 03:32:15;;;;;;;45.33;31.20;;;;;;;15.74;100.00;100731.28;5038831;28;20029;-72
2023/10/13 03:35:05;;;;;;;50.05;34.25;;;;;;;15.73;100.00;100722.38;5041584;28;20121;-72
2023/10/13 03:37:39;;;;;;;43.80;31.50;;;;;;;15.72;100.00;100726.03;5039822;28;20114;-72
2023/10/13 03:43:04;;;;;;;47.58;30.70;;;;;;;15.76;100.00;100700.69;5032842;28;20496;-72
2023/10/13 03:45:43;;;;;;;46.88;30.10;;;;;;;15.78;100.00;100698.75;5038549;28;20044;-72
2023/10/13 03:48:15;;;;;;;47.80;30.25;;;;;;;15.78;100.00;100698.75;5057837;28;20029;-71
2023/10/13 03:53:33;;;;;;;46.03;29.27;;;;;;;15.80;100.00;100677.16;5036429;28;20430;-73
2023/10/13 03:56:26;;;;;;;;;;;;;;;15.81;100.00;100678.88;5042858;28;20048;-72
2023/10/13 03:58:53;;;;;;;44.25;29.60;;;;;;;15.82;100.00;100673.38;5041128;28;19917;-72
2023/10/13 04:01:31;;;;;;;45.63;29.75;;;;;;;15.85;100.00;100678.53;5041146;28;20128;-72
2023/10/13 04:04:03;;;;;;;49.50;30.40;;;;;;;15.87;100.00;100671.19;5039158;28;20475;-71
2023/10/13 04:09:54;;;;;;;45.33;29.85;;;;;;;15.88;100.00;100654.16;5035790;28;20029;-72
2023/10/13 04:15:14;;;;;;;44.58;29.15;;;;;;;15.91;100.00;100636.94;5045124;28;20025;-73
2023/10/13 04:17:44;;;;;;;46.17;28.42;;;;;;;15.91;100.00;100643.16;5043600;28;20091;-73
2023/10/13 04:31:11;;;;;;;43.88;27.23;;;;;;;15.97;100.00;100625.75;5037855;28;20037;-71
2023/10/13 04:33:51;;;;;;;39.85;26.30;;;;;;;16.03;100.00;100627.09;5037316;28;20054;-71
2023/10/13 04:36:36;;;;;;;39.63;25.33;;;;;;;16.00;100.00;100622.81;5043084;28;20080;-72
2023/10/13 04:41:57;;;;;;;39.50;25.13;;;;;;;16.08;100.00;100635.66;5044736;28;20053;-72
2023/10/13 04:47:09;;;;;;;42.40;24.92;;;;;;;16.11;100.00;100646.16;5044132;28;20169;-70
2023/10/13 04:57:25;;;;;;;39.20;24.77;;;;;;;16.14;100.00;100632.50;5044005;28;20598;-70
2023/10/13 05:51:46;;;;;;;24.08;19.73;;;;;;;16.13;100.00;100528.75;5022415;28;20484;-71
2023/10/13 06:30:01;;;;;;;30.63;19.60;;;;;;;16.04;100.00;100518.72;5025696;28;20082;-70
2023/10/13 06:32:27;;;;;;;32.22;18.35;;;;;;;16.06;100.00;100514.13;5029875;28;20475;-70
2023/10/13 06:35:18;;;;;;;26.63;17.75;;;;;;;16.06;100.00;100514.13;5029639;28;20061;-71
2023/10/13 06:37:43;;;;;;;29.60;17.85;;;;;;;16.04;100.00;100502.63;5032392;28;20271;-70
2023/10/13 06:40:25;;;;;;;32.30;18.67;;;;;;;16.08;100.00;100506.78;5037986;28;20123;-70
2023/10/13 06:43:12;;;;;;;28.73;17.75;;;;;;;16.07;100.00;100489.81;5037732;28;20045;-71
2023/10/13 06:45:38;;;;;;;24.95;17.27;;;;;;;16.13;100.00;100483.94;5029192;28;20064;-70
2023/10/13 06:48:05;;;;;;;30.42;18.00;;;;;;;16.16;100.00;100490.91;5038353;28;20111;-71
2023/10/13 06:50:39;;;;;;;29.88;17.85;;;;;;;16.16;100.00;100478.34;5034974;28;20033;-69
2023/10/13 06:53:05;;;;;;;30.05;17.60;;;;;;;16.17;100.00;100484.56;5037934;28;20037;-70
2023/10/13 06:55:35;;;;;;;31.65;17.42;;;;;;;16.21;100.00;100491.41;5041569;28;20031;-72
2023/10/13 06:58:06;;;;;;;31.35;17.50;;;;;;;16.21;100.00;100490.53;5031898;28;20115;-71
2023/10/13 07:00:35;;;;;;;28.50;17.90;;;;;;;16.22;100.00;100493.13;5034045;28;20024;-70
2023/10/13 07:03:17;;;;;;;32.92;17.60;;;;;;;16.25;100.00;100494.69;5036224;28;20041;-70
2023/10/13 07:05:43;;;;;;;27.65;17.17;;;;;;;16.17;100.00;100473.81;5036663;28;20029;-70
2023/10/13 07:08:14;;;;;;;31.60;16.95;;;;;;;16.23;100.00;100484.09;5040717;28;20493;-70
2023/10/13 07:10:51;;;;;;;30.70;17.48;;;;;;;16.19;100.00;100471.88;5038675;28;20120;-71
2023/10/13 07:13:19;;;;;;;29.77;17.08;;;;;;;16.25;100.00;100474.06;5039884;28;20049;-70
2023/10/13 07:15:45;;;;;;;28.52;16.42;;;;;;;16.27;100.00;100468.59;5039345;28;20143;-71
2023/10/13 07:18:19;;;;;;;30.52;17.20;;;;;;;16.26;100.00;100462.38;5038581;28;20025;-72
2023/10/13 07:20:45;;;;;;;27.63;17.40;;;;;;;16.30;100.00;100460.25;5043380;28;20286;-72
2023/10/13 07:23:20;;;;;;;30.73;16.67;;;;;;;16.33;100.00;100455.50;5040296;28;20112;-71
2023/10/13 07:26:02;;;;;;;26.88;16.38;;;;;;;16.38;100.00;100457.81;5042945;28;20028;-70
2023/10/13 07:28:31;;;;;;;30.90;17.10;;;;;;;16.40;100.00;100448.66;5035685;28;20158;-70
2023/10/13 07:33:25;;;;;;;23.42;16.25;;;;;;;16.43;100.00;100445.72;5035426;28;20112;-71
2023/10/13 07:38:49;;;;;;;27.13;15.77;;;;;;;16.52;100.00;100445.97;5041614;28;20028;-70
2023/10/13 07:41:21;;;;;;;24.83;14.32;;;;;;;16.48;100.00;100450.72;5035149;28;20045;-70
2023/10/13 07:43:48;;;;;;;20.13;14.03;;;;;;;16.52;100.00;100448.66;5045376;28;20446;-72
2023/10/13 07:46:14;;;;;;;24.75;14.05;;;;;;;16.56;100.00;100455.47;5043857;28;20301;-71
2023/10/13 07:48:40;;;;;;;24.20;14.57;;;;;;;16.59;100.00;100463.25;5071748;28;20036;-69
2023/10/13 07:51:11;;;;;;;22.90;14.30;;;;;;;16.65;100.00;100450.19;5044553;28;20025;-70
2023/10/13 07:53:43;;;;;;;24.23;14.07;;;;;;;16.73;100.00;100440.69;5043644;28;20024;-71
2023/10/13 07:56:11;;;;;;;23.55;13.80;;;;;;;16.75;100.00;100434.19;5035742;28;20100;-72
2023/10/13 07:58:53;;;;;;;21.17;12.52;;;;;;;16.72;100.00;100414.72;5046780;28;20032;-71
2023/10/13 08:01:19;;;;;;;23.23;12.82;;;;;;;16.69;100.00;100431.97;5042925;28;20033;-71
2023/10/13 08:03:46;;;;;;;18.83;12.00;;;;;;;16.72;100.00;100426.38;5046673;28;20122;-73
2023/10/13 08:08:43;;;;;;;17.13;10.95;;;;;;;16.70;100.00;100433.69;5042288;28;20538;-71
2023/10/13 08:19:14;;;;;;;20.02;11.90;;;;;;;16.75;100.00;100417.19;5041338;28;20379;-71
2023/10/13 08:21:48;;;;;;;18.77;10.85;;;;;;;16.82;100.00;100413.88;5043259;28;20119;-72
2023/10/13 08:40:43;;;;;;;14.30;8.82;;;;;;;17.45;100.00;100399.59;5036907;28;20418;-72
2023/10/13 08:43:11;;;;;;;15.00;8.63;;;;;;;17.55;100.00;100400.50;5033571;28;20048;-71
2023/10/13 08:56:14;;;;;;;15.85;8.43;;;;;;;18.04;100.00;100394.38;5028857;28;20030;-73
2023/10/13 09:09:35;;;;;;;15.07;7.85;;;;;;;18.10;100.00;100366.91;5036901;28;20138;-71
2023/10/13 09:12:14;;;;;;;13.70;7.80;;;;;;;18.05;100.00;100382.59;5035034;28;20065;-71
2023/10/13 09:14:56;;;;;;;13.30;7.20;;;;;;;18.02;100.00;100357.81;5040276;28;20067;-71
2023/10/13 09:17:38;;;;;;;10.40;6.90;;;;;;;18.12;100.00;100366.75;5042366;28;20064;-72
2023/10/13 09:25:37;;;;;;;12.35;7.07;;;;;;;18.22;100.00;100370.31;5040735;28;20055;-71
2023/10/13 09:28:10;;;;;;;10.85;7.30;;;;;;;18.23;100.00;100366.66;5043917;28;20055;-72
2023/10/13 09:30:46;;;;;;;12.63;7.82;;;;;;;18.25;100.00;100374.56;5072424;28;20043;-70
2023/10/13 09:33:20;;;;;;;12.55;7.55;;;;;;;18.27;100.00;100370.78;5039338;28;20031;-71
2023/10/13 09:35:49;;;;;;;14.85;7.57;;;;;;;18.34;100.00;100368.34;5038699;28;20025;-72
2023/10/13 09:38:17;;;;;;;13.18;7.47;;;;;;;18.42;100.00;100365.81;5034851;28;20097;-73
2023/10/13 09:40:49;;;;;;;10.13;7.07;;;;;;;18.48;100.00;100359.03;5038136;28;20471;-73
2023/10/13 09:43:17;;;;;;;18.08;7.15;;;;;;;18.75;100.00;100343.00;5035184;28;20029;-70
2023/10/13 09:48:35;;;;;;;12.98;6.95;;;;;;;19.83;100.00;100357.97;5039028;28;20048;-72
2023/10/13 09:51:04;;;;;;;15.77;7.57;;;;;;;20.04;100.00;100357.72;5035553;28;20040;-71
2023/10/13 09:53:33;;;;;;;11.77;6.55;;;;;;;20.16;100.00;100359.22;5036795;28;20028;-74
2023/10/13 09:56:42;;;;;;;16.92;6.95;;;;;;;19.75;100.00;100344.34;5039464;28;20051;-75
2023/10/13 09:59:18;;;;;;;15.55;7.20;;;;;;;20.19;100.00;100342.69;5036499;28;20127;-73
2023/10/13 10:01:51;;;;;;;13.20;7.30;;;;;;;20.06;100.00;100347.59;5037543;28;20029;-73
2023/10/13 10:04:19;;;;;;;10.02;6.68;;;;;;;19.90;100.00;100341.00;5039921;28;20020;-73
2023/10/13 10:06:54;;;;;;;15.82;7.45;;;;;;;19.86;100.00;100346.88;5034690;28;20025;-72
2023/10/13 10:09:30;;;;;;;13.15;6.45;;;;;;;19.89;100.00;100331.19;5035813;28;20395;-73
2023/10/13 10:12:33;;;;;;;11.18;6.88;;;;;;;20.16;100.00;100329.47;5037268;28;20543;-73
2023/10/13 10:15:06;;;;;;;17.33;7.40;;;;;;;20.21;100.00;100329.88;5039966;28;20515;-73
2023/10/13 10:17:45;;;;;;;13.27;7.47;;;;;;;20.09;100.00;100326.53;5038436;28;20024;-72
2023/10/13 10:20:19;;;;;;;13.10;7.25;;;;;;;20.04;100.00;100317.19;5036401;28;20136;-72
2023/10/13 10:22:58;;;;;;;13.52;7.75;;;;;;;19.98;100.00;100315.09;5041520;28;20036;-73
2023/10/13 10:25:34;;;;;;;10.88;6.80;;;;;;;20.00;100.00;100321.19;5042300;28;20056;-74
2023/10/13 10:28:01;;;;;;;13.73;7.97;;;;;;;20.22;100.00;100312.66;5042112;28;20116;-72
2023/10/13 10:30:28;;;;;;;12.82;6.70;;;;;;;20.53;98.87;100321.28;5039435;28;20506;-74
2023/10/13 10:33:00;;;;;;;11.95;7.20;;;;;;;20.54;96.75;100314.00;5043242;28;20099;-74
2023/10/13 10:35:29;;;;;;;15.60;7.10;;;;;;;20.47;98.20;100312.88;5041756;28;20182;-74
2023/10/13 10:38:39;;;;;;;16.08;7.03;;;;;;;20.56;97.08;100312.84;5040925;28;20037;-74
2023/10/13 10:41:05;;;;;;;13.25;7.13;;;;;;;20.41;96.84;100306.25;5040211;28;20055;-76
2023/10/13 10:43:43;;;;;;;12.98;7.07;;;;;;;20.36;95.11;100320.25;5045054;28;20188;-76
2023/10/13 10:46:12;;;;;;;12.73;7.70;;;;;;;20.20;97.21;100301.16;5039848;28;20514;-72
2023/10/13 10:48:42;;;;;;;16.42;7.80;;;;;;;20.09;98.71;100296.81;5041666;28;20215;-72
2023/10/13 10:51:21;;;;;;;10.80;6.53;;;;;;;20.17;96.98;100285.25;5039580;28;20036;-72
2023/10/13 10:53:49;;;;;;;10.38;7.32;;;;;;;20.30;94.71;100291.13;5038550;28;20029;-73
2023/10/13 10:56:25;;;;;;;12.68;7.70;;;;;;;20.31;96.71;100287.41;5045142;28;20052;-72
2023/10/13 10:58:54;;;;;;;13.77;8.02;;;;;;;20.25;98.13;100290.72;5043935;28;20064;-73
2023/10/13 11:01:47;;;;;;;13.13;7.28;;;;;;;20.44;96.95;100305.09;5042481;28;20028;-75
2023/10/13 11:04:14;;;;;;;14.60;7.88;;;;;;;20.68;96.33;100290.97;5040197;28;20072;-73
2023/10/13 11:07:00;;;;;;;14.93;7.05;;;;;;;20.82;92.40;100303.94;5041289;28;20415;-74
2023/10/13 11:09:45;;;;;;;13.75;7.50;;;;;;;20.83;92.20;100302.94;5040362;28;20559;-74
2023/10/13 11:14:50;;;;;;;12.18;7.78;;;;;;;19.63;100.00;100287.00;5038742;28;20036;-76
2023/10/13 11:17:33;;;;;;;15.52;7.75;;;;;;;19.52;100.00;100288.03;5037909;28;20043;-73
2023/10/13 11:20:16;;;;;;;14.50;7.10;;;;;;;19.82;100.00;100278.81;5036786;28;20606;-72
2023/10/13 11:22:47;;;;;;;12.15;7.82;;;;;;;20.17;100.00;100290.66;5035888;28;20268;-72
2023/10/13 11:25:29;;;;;;;10.60;6.93;;;;;;;20.32;96.65;100275.59;5042192;28;20048;-73
2023/10/13 11:30:30;;;;;;;13.25;7.43;;;;;;;20.71;91.01;100255.50;5035646;28;20033;-74
2023/10/13 11:33:07;;;;;;;15.85;7.43;;;;;;;20.86;92.64;100246.66;5039053;28;20028;-72
2023/10/13 11:48:41;;;;;;;14.38;6.82;;;;;;;21.74;84.23;100208.53;4995091;28;20100;-73
2023/10/13 11:51:09;;;;;;;17.45;6.90;;;;;;;21.78;81.82;100230.69;4994781;28;20040;-74
2023/10/13 11:53:38;;;;;;;13.25;6.60;;;;;;;21.78;81.09;100222.56;4997508;28;20479;-73
2023/10/13 11:56:09;;;;;;;12.90;6.78;;;;;;;21.76;80.48;100224.59;4991786;28;20034;-75
2023/10/13 11:58:35;;;;;;;19.15;7.35;;;;;;;21.82;81.20;100213.09;4993105;28;20488;-76
2023/10/13 12:11:46;;;;;;;17.17;6.80;;;;;;;23.19;72.03;100210.53;5000379;28;20032;-75
2023/10/13 12:14:21;;;;;;;14.00;6.28;;;;;;;23.17;71.32;100206.31;5034473;28;20104;-72
2023/10/13 12:16:51;;;;;;;16.98;6.60;;;;;;;24.15;67.94;100209.34;5036153;28;20061;-75
2023/10/13 12:19:17;;;;;;;18.13;7.07;;;;;;;25.58;63.47;100196.53;5035867;28;20028;-73
2023/10/13 12:21:48;;;;;;;16.83;6.13;;;;;;;26.35;59.99;100200.47;5041776;28;20169;-73
2023/10/13 12:24:31;;;;;;;12.57;6.40;;;;;;;27.38;56.67;100190.75;5039973;28;20036;-73
2023/10/13 12:26:57;;;;;;;13.40;6.63;;;;;;;27.75;52.43;100211.28;5034176;28;20510;-73
2023/10/13 12:29:28;;;;;;;18.17;6.60;;;;;;;26.46;56.25;100199.13;5037976;28;20037;-74
2023/10/13 12:32:12;;;;;;;14.20;6.75;;;;;;;25.44;59.12;100204.72;5042364;28;20025;-75
2023/10/13 12:48:56;;;;;;;16.10;6.70;;;;;;;23.62;65.71;100181.16;5019393;28;20123;-73
2023/10/13 12:54:23;;;;;;;18.95;6.70;;;;;;;22.93;68.46;100190.94;5021259;28;20038;-74
2023/10/13 12:56:48;;;;;;;14.43;6.68;;;;;;;22.70;70.05;100179.94;5018020;28;20028;-73
2023/10/13 12:59:13;;;;;;;16.08;6.40;;;;;;;22.56;69.82;100190.47;5020825;28;20112;-74
2023/10/13 13:01:43;;;;;;;15.13;6.35;;;;;;;22.45;70.74;100176.41;5018791;28;20033;-75
2023/10/13 13:04:20;;;;;;;12.88;6.32;;;;;;;22.45;69.63;100182.69;5017910;28;20107;-75
2023/10/13 13:06:53;;;;;;;15.68;6.85;;;;;;;22.45;69.80;100182.69;5018093;28;20117;-74
2023/10/13 13:09:25;;;;;;;16.67;7.10;;;;;;;22.49;68.60;100175.03;5013990;28;20475;-74
2023/10/13 13:11:52;;;;;;;17.05;6.80;;;;;;;22.50;69.08;100180.31;5012999;28;20509;-73
2023/10/13 13:14:17;;;;;;;14.25;6.07;;;;;;;22.55;68.90;100179.78;5011952;28;20026;-74
2023/10/13 13:16:48;;;;;;;12.52;5.93;;;;;;;22.53;67.72;100173.69;5015322;28;20044;-73
2023/10/13 13:19:14;;;;;;;13.02;5.93;;;;;;;22.49;68.89;100180.47;5024798;28;20036;-73
2023/10/13 13:21:39;;;;;;;18.02;6.50;;;;;;;22.52;66.80;100177.41;5032945;28;20029;-73
2023/10/13 13:24:13;;;;;;;14.35;6.03;;;;;;;22.67;65.88;100161.31;5036972;28;20502;-75
2023/10/13 13:26:42;;;;;;;15.50;5.93;;;;;;;22.98;65.88;100166.84;5034207;28;20044;-74
2023/10/13 13:29:10;;;;;;;14.25;5.78;;;;;;;23.31;64.40;100173.81;5039194;28;20085;-73
2023/10/13 13:31:40;;;;;;;20.73;5.70;;;;;;;23.26;63.42;100165.38;5038381;28;20033;-73
2023/10/13 13:34:09;;;;;;;15.85;6.03;;;;;;;23.06;65.03;100167.66;5041472;28;20020;-74
2023/10/13 13:36:35;;;;;;;10.50;5.38;;;;;;;22.98;65.77;100175.81;5040607;28;20029;-74
2023/10/13 13:39:01;;;;;;;12.52;6.13;;;;;;;22.85;64.70;100178.22;5041459;28;20103;-74
2023/10/13 13:41:27;;;;;;;12.23;5.70;;;;;;;22.70;66.26;100182.63;5039040;28;20438;-75
2023/10/13 13:43:56;;;;;;;13.93;5.65;;;;;;;22.58;66.54;100157.78;5037611;28;20515;-74
2023/10/13 13:46:41;;;;;;;12.90;6.07;;;;;;;22.63;65.57;100168.94;5037529;28;20147;-76
2023/10/13 13:49:08;;;;;;;12.50;5.97;;;;;;;22.65;64.92;100164.16;5040186;28;20040;-75
2023/10/13 13:51:34;;;;;;;11.82;5.57;;;;;;;22.61;65.10;100173.69;5039542;28;20044;-73
2023/10/13 13:54:00;;;;;;;9.93;5.43;;;;;;;22.50;67.19;100174.88;5037115;28;20078;-75
2023/10/13 13:56:28;;;;;;;13.10;6.50;;;;;;;22.47;66.27;100180.66;5038526;28;20556;-76
2023/10/13 13:58:55;;;;;;;12.13;5.60;;;;;;;22.37;67.68;100158.31;5041128;28;20032;-76
2023/10/13 14:01:21;;;;;;;14.05;6.25;;;;;;;22.35;67.01;100160.31;5040435;28;20025;-77
2023/10/13 14:03:50;;;;;;;11.27;5.43;;;;;;;22.28;68.03;100160.19;5040068;28;20029;-74
2023/10/13 14:06:24;;;;;;;12.85;5.70;;;;;;;22.22;68.27;100160.84;5037251;28;20254;-76
2023/10/13 14:08:57;;;;;;;13.30;5.75;;;;;;;22.20;67.61;100164.75;5040106;28;20033;-74
2023/10/13 14:16:50;;;;;;;11.70;5.43;;;;;;;22.44;68.23;100153.03;5041298;28;20106;-75
2023/10/13 14:19:27;;;;;;;9.68;5.10;;;;;;;22.55;66.44;100156.22;5036610;28;20021;-75
2023/10/13 14:21:54;;;;;;;15.95;5.80;;;;;;;22.58;66.78;100163.19;5036561;28;20157;-74
2023/10/13 14:24:33;;;;;;;12.90;5.60;;;;;;;22.62;66.74;100156.41;5039197;28;20487;-74
2023/10/13 14:27:07;;;;;;;11.13;6.00;;;;;;;22.66;65.97;100160.47;5039501;28;20036;-76
2023/10/13 14:29:33;;;;;;;12.93;5.75;;;;;;;22.64;66.42;100159.78;5036761;28;20075;-75
2023/10/13 14:31:59;;;;;;;10.30;5.50;;;;;;;22.61;66.20;100152.84;5039759;28;20048;-74
2023/10/13 14:34:26;;;;;;;12.30;5.85;;;;;;;22.65;67.42;100160.63;5039984;28;20368;-76
2023/10/13 14:36:54;;;;;;;9.70;5.43;;;;;;;22.61;67.10;100154.69;5040463;28;20090;-74
2023/10/13 14:39:20;;;;;;;15.00;5.95;;;;;;;22.54;67.84;100149.13;5039402;28;20104;-75
2023/10/13 14:41:47;;;;;;;13.00;6.13;;;;;;;22.56;68.25;100162.50;5040610;28;20055;-77
2023/10/13 14:44:13;;;;;;;10.82;5.60;;;;;;;22.60;67.96;100153.00;5040950;28;20217;-76
2023/10/13 14:46:39;;;;;;;13.77;6.07;;;;;;;22.61;66.29;100165.53;5036084;28;20153;-75
2023/10/13 14:49:05;;;;;;;14.45;6.40;;;;;;;22.56;67.01;100155.22;5029833;28;20104;-75
2023/10/13 14:51:31;;;;;;;11.00;5.43;;;;;;;22.56;66.31;100163.34;5037113;28;20082;-77
2023/10/13 14:53:59;;;;;;;13.70;5.78;;;;;;;22.49;66.91;100151.50;5058879;23;20155;-75
2023/10/13 14:56:26;;;;;;;10.45;5.78;;;;;;;22.37;68.20;100170.00;5028705;28;20103;-72
2023/10/13 14:58:52;;;;;;;9.85;5.88;;;;;;;22.28;69.22;100159.31;5019981;28;20021;-72
2023/10/13 15:01:20;;;;;;;8.85;5.40;;;;;;;22.18;69.03;100161.34;5017596;28;20037;-71
2023/10/13 15:03:50;;;;;;;12.50;5.55;;;;;;;22.08;68.37;100148.78;5018229;28;20037;-72
2023/10/13 15:06:28;;;;;;;12.07;5.80;;;;;;;21.94;70.33;100160.28;5018599;28;20106;-72
2023/10/13 15:08:56;;;;;;;11.57;5.57;;;;;;;21.80;70.10;100167.22;5015456;28;20025;-72
2023/10/13 15:11:26;;;;;;;11.45;5.93;;;;;;;21.71;70.97;100160.09;5014070;28;20029;-71
2023/10/13 15:13:52;;;;;;;11.52;5.65;;;;;;;21.54;72.18;100148.38;5019083;28;20029;-72
2023/10/13 15:16:26;;;;;;;11.15;6.28;;;;;;;21.37;73.92;100163.75;5019789;28;20028;-72
2023/10/13 15:18:52;;;;;;;10.40;5.18;;;;;;;21.06;75.61;100163.41;5018120;28;20033;-71
2023/10/13 15:21:37;;;;;;;14.23;5.63;;;;;;;21.01;75.98;100143.25;5018772;28;20033;-72
2023/10/13 15:24:04;;;;;;;11.48;5.35;;;;;;;21.06;75.51;100146.31;5016527;28;20060;-72
2023/10/13 15:26:37;;;;;;;11.00;5.45;;;;;;;20.85;77.28;100144.88;5019369;28;20040;-72
2023/10/13 15:29:03;;;;;;;;;;;;;;;20.62;78.48;100139.19;5017967;28;20495;-73